Hlavní strana
METAR-TAF:

METAR-TAF

Letiště :

Bowman Field

Louisville, Kentucky, Spojené státy americké

zeměpisná šířka: 38-13-40N, zeměpisná délka: 085-39-49W, výška: 166 m

Aktuální stav počasí

Zpráva byla vytvořena před 21 minutami, v 09:53 UTC
Severní vítr 6 kt
Teplota 3°C
Vlhkost vzduchu 75%
Tlak 1025 hPa
Viditelnost: 12.9 km
Jasno

METAR: KLOU 250953Z AUTO 35006KT 8SM CLR 03/M01 A3026 RMK AO2 SLP246 T00281011 $

Čas: 05:14 (10:14 UTC)


TAF: chybějící

Stav a předpovědi počasí z více než 4 000 letišť (zprávy METAR a TAF).

Červené a žluté tečky na mapě představují dostupné meteorologické stanice.

Když kurzor umístíte na tečku, zobrazí se název stanice.

Pak kliknutím zobrazíte stav a předpověď počasí.

Chcete-li změnit mapu, kliknutím na zelené tlačítko se znaménkem +mapu přiblížíte, kliknutím na zelené tlačítko se znaménkem – mapu oddálíte a kliknutím na zelené šipky přejdete na sousední mapy.


METAR-TAF: